createdAt,value
2018-02-10T00:00:05.872Z,8.82
2018-02-10T00:02:34.424Z,8.74
2018-02-10T00:05:03.004Z,8.84
2018-02-10T00:07:31.701Z,8.95
2018-02-10T00:10:00.257Z,9.07
2018-02-10T00:12:29.560Z,9.08
2018-02-10T00:14:59.029Z,9.24
2018-02-10T00:17:27.591Z,9.06
2018-02-10T00:19:56.151Z,8.80
2018-02-10T00:22:35.815Z,8.99
2018-02-10T00:25:04.369Z,8.65
2018-02-10T00:27:32.913Z,8.61
2018-02-10T00:30:02.380Z,8.63
2018-02-10T00:32:30.934Z,8.43
2018-02-10T00:34:59.499Z,8.67
2018-02-10T00:37:28.872Z,8.75
2018-02-10T00:39:57.430Z,8.76
2018-02-10T00:42:25.993Z,8.70
2018-02-10T00:44:54.895Z,8.59
2018-02-10T00:47:23.477Z,8.68
2018-02-10T00:49:52.027Z,8.86
2018-02-10T00:52:21.705Z,8.91
2018-02-10T00:54:50.332Z,8.67
2018-02-10T00:57:18.884Z,8.49
2018-02-10T00:59:47.693Z,8.59
2018-02-10T01:02:17.004Z,8.56
2018-02-10T01:04:45.553Z,8.60
2018-02-10T01:07:14.199Z,8.44
2018-02-10T01:09:42.753Z,8.53
2018-02-10T01:12:11.309Z,8.46
2018-02-10T01:14:39.926Z,8.23
2018-02-10T01:17:08.473Z,8.34
2018-02-10T01:19:37.017Z,8.42
2018-02-10T01:22:05.821Z,8.54
2018-02-10T01:24:34.368Z,8.57
2018-02-10T01:27:02.932Z,8.58
2018-02-10T01:29:32.313Z,8.58
2018-02-10T01:32:00.872Z,8.53
2018-02-10T01:34:30.177Z,8.66
2018-02-10T01:36:59.069Z,8.65
2018-02-10T01:39:27.650Z,8.58
2018-02-10T01:41:56.210Z,8.81
2018-02-10T01:44:25.020Z,8.86
2018-02-10T01:46:53.616Z,8.84
2018-02-10T01:49:22.172Z,8.79
2018-02-10T01:51:51.073Z,8.83
2018-02-10T01:54:19.618Z,8.86
2018-02-10T01:56:48.166Z,8.93
2018-02-10T01:59:16.769Z,8.93
2018-02-10T02:01:46.081Z,9.03
2018-02-10T02:04:14.635Z,9.04
2018-02-10T02:06:43.337Z,9.11
2018-02-10T02:09:12.653Z,9.16
2018-02-10T02:11:41.201Z,9.19
2018-02-10T02:14:09.826Z,9.23
2018-02-10T02:16:38.378Z,9.21
2018-02-10T02:19:07.748Z,8.93
2018-02-10T02:21:36.444Z,9.03
2018-02-10T02:24:05.025Z,9.05
2018-02-10T02:26:33.577Z,9.10
2018-02-10T02:29:02.283Z,9.13
2018-02-10T02:31:30.837Z,9.21
2018-02-10T02:33:59.396Z,9.06
2018-02-10T02:36:28.954Z,9.01
2018-02-10T02:38:57.509Z,9.06
2018-02-10T02:41:26.054Z,9.30
2018-02-10T02:43:54.917Z,9.34
2018-02-10T02:46:23.473Z,9.58
2018-02-10T02:48:52.026Z,9.53
2018-02-10T02:51:20.971Z,9.42
2018-02-10T02:53:49.526Z,9.43
2018-02-10T02:56:18.087Z,9.50
2018-02-10T02:58:46.714Z,9.25
2018-02-10T03:01:15.265Z,9.28
2018-02-10T03:03:43.814Z,9.26
2018-02-10T03:06:13.292Z,9.59
2018-02-10T03:08:41.853Z,9.68
2018-02-10T03:11:10.401Z,9.62
2018-02-10T03:13:39.868Z,9.42
2018-02-10T03:16:08.467Z,9.61
2018-02-10T03:18:37.029Z,9.62
2018-02-10T03:21:05.803Z,9.69
2018-02-10T03:23:34.357Z,9.59
2018-02-10T03:26:02.907Z,9.17
2018-02-10T03:28:32.381Z,9.03
2018-02-10T03:31:00.932Z,8.91
2018-02-10T03:33:29.493Z,8.64
2018-02-10T03:35:59.053Z,8.68
2018-02-10T03:38:27.614Z,8.60
2018-02-10T03:40:56.164Z,8.66
2018-02-10T03:43:25.641Z,8.70
2018-02-10T03:45:54.209Z,8.85
2018-02-10T03:48:22.765Z,8.88
2018-02-10T03:50:51.573Z,9.02
2018-02-10T03:53:20.125Z,9.33
2018-02-10T03:55:48.672Z,9.41
2018-02-10T03:58:18.784Z,9.45
2018-02-10T04:00:47.358Z,9.72
2018-02-10T04:03:15.918Z,9.80
2018-02-10T04:05:44.529Z,9.71
2018-02-10T04:08:13.093Z,9.11
2018-02-10T04:10:41.648Z,8.83
2018-02-10T04:13:10.371Z,8.83
2018-02-10T04:15:38.924Z,8.79
2018-02-10T04:18:07.474Z,8.90
2018-02-10T04:20:36.836Z,9.12
2018-02-10T04:23:05.388Z,9.20
2018-02-10T04:25:33.952Z,9.27
2018-02-10T04:28:03.505Z,9.12
2018-02-10T04:30:32.070Z,9.15
2018-02-10T04:33:00.628Z,8.97
2018-02-10T04:35:29.996Z,8.80
2018-02-10T04:37:58.558Z,9.10
2018-02-10T04:40:27.110Z,9.08
2018-02-10T04:42:55.832Z,9.03
2018-02-10T04:45:24.394Z,8.94
2018-02-10T04:47:52.955Z,9.03
2018-02-10T04:50:21.649Z,8.89
2018-02-10T04:52:50.198Z,8.74
2018-02-10T04:55:19.526Z,8.95
2018-02-10T04:57:48.232Z,9.07
2018-02-10T05:00:16.784Z,8.94
2018-02-10T05:02:46.103Z,9.16
2018-02-10T05:05:14.716Z,8.96
2018-02-10T05:07:43.268Z,8.79
2018-02-10T05:10:11.825Z,8.66
2018-02-10T05:12:41.205Z,8.72
2018-02-10T05:15:09.763Z,9.12
2018-02-10T05:17:38.325Z,9.17
2018-02-10T05:20:06.927Z,9.03
2018-02-10T05:22:35.485Z,9.15
2018-02-10T05:25:04.056Z,9.03
2018-02-10T05:27:32.884Z,8.93
2018-02-10T05:30:01.439Z,8.97
2018-02-10T05:32:29.986Z,9.05
2018-02-10T05:34:58.844Z,9.01
2018-02-10T05:37:27.396Z,8.99
2018-02-10T05:39:56.349Z,9.13
2018-02-10T05:42:25.921Z,9.00
2018-02-10T05:44:54.473Z,9.14
2018-02-10T05:47:23.036Z,9.17
2018-02-10T05:49:52.692Z,9.31
2018-02-10T05:52:21.249Z,9.26
2018-02-10T05:54:49.812Z,9.04
2018-02-10T05:57:19.370Z,9.27
2018-02-10T05:59:47.920Z,9.29
2018-02-10T06:02:16.474Z,9.41
2018-02-10T06:04:45.896Z,9.51
2018-02-10T06:07:14.461Z,9.62
2018-02-10T06:09:43.780Z,9.15
2018-02-10T06:12:12.613Z,9.23
2018-02-10T06:14:41.164Z,9.38
2018-02-10T06:17:09.713Z,9.48
2018-02-10T06:19:39.087Z,9.48
2018-02-10T06:22:07.641Z,9.31
2018-02-10T06:24:36.184Z,9.25
2018-02-10T06:27:05.717Z,9.22
2018-02-10T06:29:34.271Z,9.32
2018-02-10T06:32:03.608Z,9.09
2018-02-10T06:34:32.427Z,9.19
2018-02-10T06:37:00.985Z,9.09
2018-02-10T06:39:29.550Z,9.30
2018-02-10T06:41:58.168Z,9.33
2018-02-10T06:44:26.730Z,9.35
2018-02-10T06:46:55.287Z,9.24
2018-02-10T06:49:24.656Z,9.61
2018-02-10T06:51:53.203Z,9.45
2018-02-10T06:54:21.756Z,9.34
2018-02-10T06:56:51.284Z,9.32
2018-02-10T06:59:19.849Z,9.69
2018-02-10T07:01:48.407Z,9.50
2018-02-10T07:04:17.234Z,9.53
2018-02-10T07:06:45.796Z,9.62
2018-02-10T07:09:14.344Z,9.81
2018-02-10T07:11:43.901Z,10.09
2018-02-10T07:14:13.379Z,10.12
2018-02-10T07:16:41.945Z,10.17
2018-02-10T07:19:11.321Z,10.55
2018-02-10T07:21:40.669Z,10.16
2018-02-10T07:24:09.228Z,9.77
2018-02-10T07:26:38.693Z,9.95
2018-02-10T07:29:07.252Z,10.54
2018-02-10T07:31:35.810Z,10.35
2018-02-10T07:34:05.176Z,10.59
2018-02-10T07:36:33.737Z,10.49
2018-02-10T07:39:02.288Z,10.54
2018-02-10T07:41:31.004Z,10.87
2018-02-10T07:43:59.560Z,10.85
2018-02-10T07:48:15.238Z,10.99
2018-02-10T07:50:43.792Z,10.97
2018-02-10T07:53:12.349Z,10.99
2018-02-10T07:55:40.962Z,11.10
2018-02-10T07:58:11.080Z,11.38
2018-02-10T08:00:39.640Z,11.50
2018-02-10T08:03:08.628Z,11.61
2018-02-10T08:05:37.197Z,11.68
2018-02-10T08:08:05.747Z,11.70
2018-02-10T08:10:34.585Z,11.81
2018-02-10T08:13:03.168Z,11.77
2018-02-10T08:15:31.733Z,12.10
2018-02-10T08:18:00.743Z,12.30
2018-02-10T08:20:29.300Z,12.30
2018-02-10T08:22:58.206Z,12.40
2018-02-10T08:25:27.315Z,12.48
2018-02-10T08:27:55.869Z,12.63
2018-02-10T08:30:24.429Z,12.20
2018-02-10T08:32:53.072Z,12.58
2018-02-10T08:35:21.643Z,12.45
2018-02-10T08:37:50.232Z,12.93
2018-02-10T08:40:18.828Z,12.87
2018-02-10T08:42:47.395Z,12.53
2018-02-10T08:45:16.276Z,12.65
2018-02-10T08:47:44.975Z,12.74
2018-02-10T08:50:13.531Z,12.40
2018-02-10T08:52:42.088Z,12.58
2018-02-10T08:55:10.692Z,12.71
2018-02-10T08:57:39.257Z,12.31
2018-02-10T09:00:08.610Z,12.67
2018-02-10T09:02:37.312Z,12.76
2018-02-10T09:05:05.874Z,12.81
2018-02-10T09:07:34.429Z,12.79
2018-02-10T09:10:03.244Z,12.98
2018-02-10T09:12:32.566Z,12.94
2018-02-10T09:15:01.158Z,13.04
2018-02-10T09:17:30.641Z,12.93
2018-02-10T09:19:59.198Z,13.03
2018-02-10T09:22:27.788Z,12.84
2018-02-10T09:24:56.587Z,12.60
2018-02-10T09:27:25.135Z,12.46
2018-02-10T09:29:53.708Z,12.19
2018-02-10T09:32:23.175Z,12.15
2018-02-10T09:34:51.742Z,12.47
2018-02-10T09:37:20.296Z,13.10
2018-02-10T09:39:49.114Z,13.24
2018-02-10T09:42:17.668Z,13.26
2018-02-10T09:44:46.244Z,13.64
2018-02-10T09:47:14.838Z,13.89
2018-02-10T09:49:44.170Z,14.15
2018-02-10T09:52:12.732Z,14.48
2018-02-10T09:54:41.386Z,15.09
2018-02-10T09:57:09.941Z,15.32
2018-02-10T09:59:38.496Z,14.58
2018-02-10T10:02:07.192Z,14.34
2018-02-10T10:04:35.745Z,14.41
2018-02-10T10:07:04.308Z,13.68
2018-02-10T10:09:33.675Z,13.69
2018-02-10T10:12:02.233Z,13.75
2018-02-10T10:14:31.552Z,13.74
2018-02-10T10:17:00.245Z,12.86
2018-02-10T10:19:29.014Z,12.53
2018-02-10T10:21:57.569Z,12.05
2018-02-10T10:24:26.548Z,12.25
2018-02-10T10:26:55.268Z,12.38
2018-02-10T10:29:23.955Z,12.32
2018-02-10T10:31:52.849Z,12.32
2018-02-10T10:34:21.535Z,11.99
2018-02-10T10:36:50.225Z,12.03
2018-02-10T10:39:19.155Z,11.98
2018-02-10T10:41:48.517Z,12.11
2018-02-10T10:44:17.100Z,11.51
2018-02-10T10:46:45.886Z,11.56
2018-02-10T10:49:14.670Z,11.87
2018-02-10T10:51:43.320Z,11.75
2018-02-10T10:54:12.043Z,11.82
2018-02-10T10:56:40.728Z,11.95
2018-02-10T10:59:09.414Z,11.99
2018-02-10T11:01:38.111Z,11.78
2018-02-10T11:04:17.763Z,11.87
2018-02-10T11:06:46.473Z,12.01
2018-02-10T11:09:15.797Z,12.06
2018-02-10T11:11:44.353Z,11.81
2018-02-10T11:14:13.721Z,12.15
2018-02-10T11:16:42.304Z,11.91
2018-02-10T11:19:35.431Z,11.80
2018-02-10T11:22:03.996Z,12.06
2018-02-10T11:24:33.321Z,12.29
2018-02-10T11:27:02.337Z,12.07
2018-02-10T11:29:30.893Z,12.12
2018-02-10T11:31:59.444Z,12.26
2018-02-10T11:34:29.012Z,12.13
2018-02-10T11:36:57.596Z,11.89
2018-02-10T11:39:26.147Z,12.02
2018-02-10T11:41:54.780Z,12.10
2018-02-10T11:44:23.346Z,12.13
2018-02-10T11:46:51.940Z,12.07
2018-02-10T11:49:20.713Z,12.29
2018-02-10T11:51:49.332Z,12.09
2018-02-10T11:54:17.884Z,12.18
2018-02-10T11:56:46.869Z,12.19
2018-02-10T11:59:15.417Z,12.03
2018-02-10T12:01:43.999Z,12.11
2018-02-10T12:04:12.912Z,12.16
2018-02-10T12:06:41.469Z,12.09
2018-02-10T12:09:10.785Z,12.01
2018-02-10T12:11:39.704Z,12.07
2018-02-10T12:14:08.256Z,12.14
2018-02-10T12:16:36.812Z,12.26
2018-02-10T12:19:06.280Z,12.25
2018-02-10T12:21:34.881Z,12.26
2018-02-10T12:24:03.432Z,12.27
2018-02-10T12:26:32.926Z,12.30
2018-02-10T12:29:01.536Z,12.17
2018-02-10T12:31:30.864Z,12.37
2018-02-10T12:34:00.237Z,12.34
2018-02-10T12:36:28.802Z,12.09
2018-02-10T12:38:57.392Z,12.07
2018-02-10T12:41:26.168Z,11.98
2018-02-10T12:43:54.720Z,12.05
2018-02-10T12:46:23.276Z,12.27
2018-02-10T12:51:54.204Z,12.26
2018-02-10T12:54:22.990Z,12.34
2018-02-10T12:56:51.572Z,12.17
2018-02-10T12:59:20.120Z,12.20
2018-02-10T13:01:48.733Z,12.05
2018-02-10T13:04:17.280Z,11.87
2018-02-10T13:06:45.836Z,11.98
2018-02-10T13:09:15.304Z,11.91
2018-02-10T13:11:43.855Z,11.91
2018-02-10T13:14:12.403Z,11.95
2018-02-10T13:16:41.280Z,11.82
2018-02-10T13:19:09.841Z,12.07
2018-02-10T13:21:38.398Z,11.91
2018-02-10T13:24:07.012Z,11.89
2018-02-10T13:26:35.568Z,11.84
2018-02-10T13:29:04.154Z,11.92
2018-02-10T13:31:33.036Z,11.92
2018-02-10T13:34:01.585Z,11.96
2018-02-10T13:36:30.132Z,11.88
2018-02-10T13:38:58.920Z,12.04
2018-02-10T13:41:27.483Z,12.13
2018-02-10T13:43:56.044Z,12.14
2018-02-10T13:46:25.504Z,12.19
2018-02-10T13:48:54.071Z,12.49
2018-02-10T13:51:22.625Z,12.34
2018-02-10T13:53:51.234Z,12.33
2018-02-10T13:56:19.782Z,12.31
2018-02-10T13:58:48.332Z,12.31
2018-02-10T14:01:16.937Z,12.10
2018-02-10T14:03:46.251Z,11.88
2018-02-10T14:06:14.800Z,12.09
2018-02-10T14:08:43.665Z,11.98
2018-02-10T14:11:12.223Z,11.99
2018-02-10T14:13:40.805Z,12.18
2018-02-10T14:16:09.416Z,12.05
2018-02-10T14:18:37.995Z,12.12
2018-02-10T14:21:06.546Z,12.17
2018-02-10T14:23:35.463Z,12.04
2018-02-10T14:26:04.024Z,11.98
2018-02-10T14:28:32.581Z,12.06
2018-02-10T14:31:02.046Z,12.14
2018-02-10T14:33:30.600Z,12.28
2018-02-10T14:35:59.149Z,12.07
2018-02-10T14:38:28.517Z,12.04
2018-02-10T14:40:57.084Z,12.24
2018-02-10T14:43:25.636Z,12.06
2018-02-10T14:45:54.231Z,12.01
2018-02-10T14:48:22.786Z,11.98
2018-02-10T14:50:52.100Z,11.87
2018-02-10T14:53:21.568Z,11.97
2018-02-10T14:55:50.126Z,11.72
2018-02-10T14:58:18.676Z,11.63
2018-02-10T15:00:47.272Z,11.65
2018-02-10T15:03:15.824Z,11.66
2018-02-10T15:05:45.144Z,11.65
2018-02-10T15:08:13.949Z,11.82
2018-02-10T15:10:42.496Z,11.82
2018-02-10T15:13:12.037Z,11.79
2018-02-10T15:15:40.761Z,11.83
2018-02-10T15:18:09.328Z,11.89
2018-02-10T15:20:37.889Z,11.87
2018-02-10T15:23:06.489Z,11.81
2018-02-10T15:25:35.077Z,11.90
2018-02-10T15:28:03.644Z,12.08
2018-02-10T15:30:50.265Z,12.08
2018-02-10T15:33:36.566Z,12.07
2018-02-10T15:36:05.535Z,12.45
2018-02-10T15:38:34.238Z,12.16
2018-02-10T15:41:02.893Z,12.42
2018-02-10T15:43:31.512Z,12.36
2018-02-10T15:46:00.155Z,12.18
2018-02-10T15:48:28.882Z,11.90
2018-02-10T15:50:57.939Z,11.75
2018-02-10T15:53:26.560Z,11.88
2018-02-10T15:55:55.251Z,11.92
2018-02-10T15:58:24.089Z,11.76
2018-02-10T16:00:53.541Z,11.51
2018-02-10T16:03:23.073Z,11.78
2018-02-10T16:05:51.993Z,11.68
2018-02-10T16:08:21.312Z,11.61
2018-02-10T16:10:49.869Z,11.81
2018-02-10T16:13:19.422Z,11.71
2018-02-10T16:15:47.968Z,11.68
2018-02-10T16:18:17.288Z,11.76
2018-02-10T16:20:45.899Z,11.43
2018-02-10T16:23:14.448Z,11.69
2018-02-10T16:25:43.066Z,11.45
2018-02-10T16:28:12.100Z,11.29
2018-02-10T16:30:41.423Z,11.28
2018-02-10T16:33:10.025Z,11.22
2018-02-10T16:35:38.622Z,11.15
2018-02-10T16:38:07.168Z,11.15
2018-02-10T16:40:35.744Z,10.92
2018-02-10T16:43:05.284Z,11.19
2018-02-10T16:45:33.830Z,11.09
2018-02-10T16:48:03.145Z,11.04
2018-02-10T16:50:32.789Z,11.09
2018-02-10T16:53:01.341Z,11.16
2018-02-10T16:55:29.895Z,10.95
2018-02-10T16:57:59.426Z,10.84
2018-02-10T17:00:27.975Z,11.00
2018-02-10T17:02:57.580Z,10.80
2018-02-10T17:05:26.268Z,10.77
2018-02-10T17:07:54.816Z,10.59
2018-02-10T17:10:24.132Z,10.46
2018-02-10T17:12:53.680Z,10.53
2018-02-10T17:15:22.228Z,10.67
2018-02-10T17:17:50.774Z,10.70
2018-02-10T17:20:19.485Z,10.85
2018-02-10T17:22:48.811Z,10.85
2018-02-10T17:25:17.375Z,10.91
2018-02-10T17:27:46.031Z,10.87
2018-02-10T17:30:15.564Z,10.57
2018-02-10T17:32:45.615Z,10.36
2018-02-10T17:35:14.410Z,10.32
2018-02-10T17:37:42.989Z,10.18
2018-02-10T17:40:11.541Z,10.33
2018-02-10T17:42:40.138Z,10.15
2018-02-10T17:45:08.692Z,10.31
2018-02-10T17:47:37.992Z,10.26
2018-02-10T17:50:07.453Z,10.41
2018-02-10T17:52:36.005Z,10.46
2018-02-10T17:55:04.568Z,10.32
2018-02-10T17:57:33.944Z,10.49
2018-02-10T18:00:02.505Z,10.50
2018-02-10T18:02:31.068Z,10.38
2018-02-10T18:04:59.810Z,10.33
2018-02-10T18:07:29.124Z,10.35
2018-02-10T18:09:58.439Z,10.43
2018-02-10T18:12:27.260Z,10.32
2018-02-10T18:14:55.808Z,10.40
2018-02-10T18:17:24.372Z,10.43
2018-02-10T18:19:54.034Z,10.32
2018-02-10T18:22:22.586Z,10.29
2018-02-10T18:24:51.140Z,10.14
2018-02-10T18:27:20.789Z,10.29
2018-02-10T18:29:49.333Z,10.42
2018-02-10T18:32:18.652Z,10.45
2018-02-10T18:34:47.580Z,10.35
2018-02-10T18:37:16.129Z,10.44
2018-02-10T18:39:44.676Z,10.23
2018-02-10T18:42:13.636Z,10.35
2018-02-10T18:44:42.184Z,10.11
2018-02-10T18:47:10.737Z,10.17
2018-02-10T18:49:39.440Z,10.19
2018-02-10T18:52:08.760Z,10.37
2018-02-10T18:54:37.312Z,10.32
2018-02-10T18:57:06.772Z,10.18
2018-02-10T18:59:35.328Z,10.26
2018-02-10T19:02:03.883Z,10.10
2018-02-10T19:04:33.454Z,10.12
2018-02-10T19:07:02.005Z,10.07
2018-02-10T19:09:30.575Z,10.10
2018-02-10T19:11:59.468Z,10.03
2018-02-10T19:14:28.049Z,10.14
2018-02-10T19:16:56.583Z,9.92
2018-02-10T19:19:25.184Z,10.08
2018-02-10T19:21:53.737Z,10.17
2018-02-10T19:24:22.289Z,10.16
2018-02-10T19:26:50.884Z,10.28
2018-02-10T19:29:19.436Z,10.20
2018-02-10T19:31:48.752Z,10.33
2018-02-10T19:34:23.412Z,10.21
2018-02-10T19:36:51.969Z,10.07
2018-02-10T19:39:20.522Z,10.25
2018-02-10T19:41:50.080Z,10.18
2018-02-10T19:44:18.641Z,10.04
2018-02-10T19:46:47.352Z,10.12
2018-02-10T19:49:16.281Z,10.12
2018-02-10T19:51:45.601Z,10.16
2018-02-10T19:54:14.151Z,10.09
2018-02-10T19:56:43.020Z,10.14
2018-02-10T19:59:11.579Z,10.08
2018-02-10T20:01:40.136Z,10.06
2018-02-10T20:04:08.833Z,10.31
2018-02-10T20:06:37.394Z,10.00
2018-02-10T20:09:06.733Z,10.18
2018-02-10T20:11:35.539Z,10.08
2018-02-10T20:14:04.092Z,10.14
2018-02-10T20:16:32.645Z,10.55
2018-02-10T20:19:02.029Z,10.11
2018-02-10T20:21:30.589Z,10.19
2018-02-10T20:23:59.178Z,10.12
2018-02-10T20:26:27.772Z,10.07
2018-02-10T20:28:56.357Z,10.09
2018-02-10T20:31:24.923Z,10.08
2018-02-10T20:33:53.519Z,9.97
2018-02-10T20:36:22.064Z,9.96
2018-02-10T20:38:50.609Z,9.86
2018-02-10T20:41:19.986Z,9.75
2018-02-10T20:43:48.548Z,9.82
2018-02-10T20:46:17.087Z,9.78
2018-02-10T20:48:46.644Z,9.79
2018-02-10T20:51:15.197Z,9.54
2018-02-10T20:53:43.757Z,9.60
2018-02-10T20:56:13.269Z,9.62
2018-02-10T20:58:41.820Z,9.64
2018-02-10T21:01:10.381Z,9.75
2018-02-10T21:03:39.372Z,9.82
2018-02-10T21:06:07.923Z,9.63
2018-02-10T21:08:36.472Z,9.69
2018-02-10T21:11:05.840Z,9.49
2018-02-10T21:13:34.376Z,9.36
2018-02-10T21:16:03.712Z,9.41
2018-02-10T21:18:39.724Z,9.50
2018-02-10T21:21:09.233Z,9.61
2018-02-10T21:23:38.549Z,9.66
2018-02-10T21:26:07.140Z,9.64
2018-02-10T21:28:35.693Z,9.61
2018-02-10T21:31:05.050Z,9.65
2018-02-10T21:33:33.740Z,9.64
2018-02-10T21:36:02.288Z,9.73
2018-02-10T21:38:30.828Z,9.74
2018-02-10T21:40:59.548Z,9.84
2018-02-10T21:43:28.092Z,9.51
2018-02-10T21:45:56.640Z,9.77
2018-02-10T21:48:25.517Z,9.79
2018-02-10T21:50:54.053Z,9.80
2018-02-10T21:53:22.595Z,9.55
2018-02-10T21:55:51.298Z,9.29
2018-02-10T21:58:19.844Z,9.26
2018-02-10T22:00:48.384Z,9.27
2018-02-10T22:03:17.116Z,9.15
2018-02-10T22:05:45.664Z,9.12
2018-02-10T22:08:14.984Z,9.06
2018-02-10T22:10:44.333Z,9.04
2018-02-10T22:13:13.652Z,8.81
2018-02-10T22:15:42.201Z,8.90
2018-02-10T22:18:11.106Z,9.04
2018-02-10T22:20:39.644Z,8.95
2018-02-10T22:23:08.993Z,9.12
2018-02-10T22:25:37.688Z,8.78
2018-02-10T22:28:06.227Z,8.82
2018-02-10T22:30:34.801Z,8.74
2018-02-10T22:33:03.388Z,8.76
2018-02-10T22:35:31.940Z,8.69
2018-02-10T22:38:00.491Z,8.82
2018-02-10T22:40:29.089Z,8.80
2018-02-10T22:42:57.637Z,8.42
2018-02-10T22:45:26.172Z,8.49
2018-02-10T22:47:55.034Z,8.38
2018-02-10T22:50:23.571Z,8.45
2018-02-10T22:52:52.109Z,8.38
2018-02-10T22:55:20.700Z,8.43
2018-02-10T22:57:49.256Z,8.39
2018-02-10T23:00:17.829Z,8.27
2018-02-10T23:02:46.428Z,8.31
2018-02-10T23:05:14.964Z,8.50
2018-02-10T23:07:44.268Z,8.48
2018-02-10T23:10:13.721Z,8.60
2018-02-10T23:12:42.259Z,8.41
2018-02-10T23:15:10.805Z,8.40
2018-02-10T23:17:39.564Z,8.43
2018-02-10T23:20:08.115Z,8.35
2018-02-10T23:22:36.655Z,8.41
2018-02-10T23:25:05.540Z,8.19
2018-02-10T23:27:34.081Z,8.10
2018-02-10T23:30:02.620Z,7.91
2018-02-10T23:32:32.869Z,7.96
2018-02-10T23:35:01.412Z,7.85
2018-02-10T23:37:29.960Z,7.84
2018-02-10T23:39:58.885Z,7.57
2018-02-10T23:42:27.443Z,7.48
2018-02-10T23:44:55.988Z,7.62
2018-02-10T23:47:24.592Z,7.61
2018-02-10T23:49:53.132Z,7.62
2018-02-10T23:52:21.680Z,7.54
2018-02-10T23:54:50.565Z,7.40
2018-02-10T23:57:19.104Z,7.38
2018-02-10T23:59:47.644Z,7.22
